Time;durP1;ratioP1;P1;durP2;ratioP2;P2;SDS_P1;SDS_P2;PMS_P1;PMS_P2;Temp;Humidity;BMP_temperature;BMP_pressure;BME280_temperature;BME280_humidity;BME280_pressure;Samples;Min_cycle;Max_cycle;Signal;HPM_P1;HPM_P2
2021/04/10 00:01:41;;;;;;;20.83;3.23;;;;;;;3.06;87.30;100983.34;5049862;28;20041;-63
2021/04/10 00:04:09;;;;;;;23.83;3.50;;;;;;;3.03;87.59;100995.91;5049882;28;20094;-63
2021/04/10 00:06:35;;;;;;;21.20;3.70;;;;;;;2.96;87.30;100992.84;5050765;28;20116;-63
2021/04/10 00:09:01;;;;;;;19.63;3.67;;;;;;;3.00;87.16;100983.78;5050470;28;20108;-63
2021/04/10 00:11:27;;;;;;;28.52;4.82;;;;;;;2.99;87.21;100990.00;5049536;28;20049;-63
2021/04/10 00:13:52;;;;;;;22.50;4.03;;;;;;;2.96;87.01;100988.41;5049828;28;20037;-63
2021/04/10 00:16:18;;;;;;;11.23;2.53;;;;;;;3.01;87.06;100992.53;5049709;28;20037;-63
2021/04/10 00:18:43;;;;;;;18.42;3.90;;;;;;;2.99;86.77;100991.78;5032755;28;20620;-63
2021/04/10 00:21:09;;;;;;;30.23;3.47;;;;;;;2.94;86.27;100986.84;5050578;28;20033;-64
2021/04/10 00:23:34;;;;;;;19.10;3.50;;;;;;;2.96;86.36;100993.69;5052455;28;20481;-64
2021/04/10 00:26:00;;;;;;;21.17;3.70;;;;;;;2.94;86.37;100997.41;5036644;28;20055;-63
2021/04/10 00:28:26;;;;;;;16.52;2.85;;;;;;;2.94;86.09;100989.47;5054057;28;20440;-64
2021/04/10 00:30:51;;;;;;;11.83;2.70;;;;;;;3.00;85.69;100988.19;5053314;28;20028;-64
2021/04/10 00:33:16;;;;;;;15.73;3.53;;;;;;;3.04;85.60;100981.75;5054303;28;20044;-63
2021/04/10 00:35:42;;;;;;;14.60;2.97;;;;;;;3.01;85.66;100995.19;5053082;28;20351;-63
2021/04/10 00:38:07;;;;;;;15.53;3.47;;;;;;;3.01;85.58;101000.44;5052955;28;20102;-63
2021/04/10 00:40:33;;;;;;;20.50;2.97;;;;;;;3.02;85.38;100999.47;5052978;28;20052;-64
2021/04/10 00:42:58;;;;;;;12.70;2.50;;;;;;;2.99;85.30;101002.34;5036545;28;20098;-64
2021/04/10 00:45:24;;;;;;;19.53;3.37;;;;;;;2.96;85.29;100998.97;5036594;28;20054;-63
2021/04/10 00:47:49;;;;;;;28.60;4.30;;;;;;;2.94;85.03;100995.59;5052683;28;20365;-63
2021/04/10 00:50:15;;;;;;;15.25;2.58;;;;;;;2.98;84.55;100992.75;5053099;28;20105;-63
2021/04/10 00:52:41;;;;;;;13.25;2.53;;;;;;;2.97;83.95;100994.53;5053823;28;20040;-63
2021/04/10 00:55:10;;;;;;;14.88;3.30;;;;;;;2.98;83.94;101000.69;5052505;28;20067;-64
2021/04/10 00:57:36;;;;;;;21.65;3.78;;;;;;;2.95;83.63;100997.31;5052398;28;20036;-64
2021/04/10 01:00:03;;;;;;;18.90;3.22;;;;;;;2.93;84.01;101001.84;5052816;28;20047;-63
2021/04/10 01:02:30;;;;;;;14.48;2.50;;;;;;;2.86;84.35;100997.09;5052641;28;20433;-63
2021/04/10 01:04:55;;;;;;;10.90;3.08;;;;;;;2.84;84.82;100994.56;5052748;28;20795;-64
2021/04/10 01:07:21;;;;;;;12.95;2.90;;;;;;;2.84;85.06;100991.09;5053468;28;20033;-64
2021/04/10 01:09:49;;;;;;;17.40;2.80;;;;;;;2.78;84.90;100989.69;5053287;28;20370;-64
2021/04/10 01:12:27;;;;;;;14.95;2.83;;;;;;;2.77;85.23;100993.31;5052423;28;20033;-64
2021/04/10 01:15:21;;;;;;;13.80;2.78;;;;;;;2.72;85.10;100993.63;5053474;28;20035;-64
2021/04/10 01:17:53;;;;;;;18.35;3.55;;;;;;;2.66;85.76;101001.09;5052113;28;20033;-64
2021/04/10 01:20:45;;;;;;;22.80;3.08;;;;;;;2.67;85.75;101000.13;5053446;28;20343;-63
2021/04/10 01:23:42;;;;;;;23.67;3.58;;;;;;;2.69;84.27;100998.25;5052313;28;20048;-63
2021/04/10 01:26:22;;;;;;;14.93;3.20;;;;;;;2.75;83.60;101000.47;5053189;28;20094;-64
2021/04/10 01:28:54;;;;;;;16.63;2.30;;;;;;;2.75;82.94;101009.22;5051857;28;20068;-64
2021/04/10 01:31:26;;;;;;;18.20;1.92;;;;;;;2.75;83.19;101014.50;5052261;28;20047;-63
2021/04/10 01:33:58;;;;;;;20.35;2.72;;;;;;;2.75;82.83;101005.75;5050895;28;20033;-64
2021/04/10 01:36:30;;;;;;;9.77;2.75;;;;;;;2.69;83.09;101009.66;5052037;28;20196;-63
2021/04/10 01:38:57;;;;;;;18.73;4.35;;;;;;;2.69;83.19;101006.16;5051593;28;20633;-64
2021/04/10 01:41:24;;;;;;;27.33;5.28;;;;;;;2.69;83.24;101007.03;5051902;28;20029;-64
2021/04/10 01:43:51;;;;;;;12.57;2.63;;;;;;;2.67;82.97;101008.03;5051854;28;20051;-63
2021/04/10 01:46:18;;;;;;;17.13;3.17;;;;;;;2.68;82.64;101004.47;5052880;28;20052;-63
2021/04/10 01:48:46;;;;;;;8.75;2.10;;;;;;;2.63;82.37;101007.44;5051483;28;20029;-64
2021/04/10 01:51:13;;;;;;;18.35;4.05;;;;;;;2.63;82.46;101007.44;5035132;28;20035;-63
2021/04/10 01:53:41;;;;;;;14.60;3.75;;;;;;;2.67;82.08;101003.63;5051582;28;20163;-63
2021/04/10 01:56:08;;;;;;;18.40;4.68;;;;;;;2.65;82.14;101009.97;5051582;28;20417;-63
2021/04/10 01:58:42;;;;;;;13.85;3.30;;;;;;;2.58;82.74;101019.25;5051298;28;20098;-64
2021/04/10 02:01:14;;;;;;;18.77;2.45;;;;;;;2.56;82.59;101010.59;5035361;28;20049;-63
2021/04/10 02:03:46;;;;;;;27.60;5.82;;;;;;;2.49;82.86;101016.28;5051331;28;20040;-63
2021/04/10 02:06:15;;;;;;;23.50;3.25;;;;;;;2.40;83.08;101022.16;5052502;28;20108;-63
2021/04/10 02:08:47;;;;;;;16.85;2.67;;;;;;;2.47;82.33;101020.78;5051033;28;20036;-63
2021/04/10 02:11:25;;;;;;;16.67;3.42;;;;;;;2.40;82.69;101019.53;5051392;28;20087;-64
2021/04/10 02:13:56;;;;;;;18.35;3.13;;;;;;;2.38;83.09;101018.78;5035397;28;20260;-63
2021/04/10 02:16:29;;;;;;;18.08;3.05;;;;;;;2.34;83.26;101022.56;5052192;28;20064;-64
2021/04/10 02:19:02;;;;;;;18.05;4.45;;;;;;;2.38;83.24;101028.47;5050925;28;20040;-63
2021/04/10 02:21:27;;;;;;;26.58;3.30;;;;;;;2.29;83.51;101020.25;5051321;28;20343;-64
2021/04/10 02:23:54;;;;;;;15.00;3.42;;;;;;;2.34;83.20;101022.56;5052055;28;20040;-63
2021/04/10 02:26:27;;;;;;;16.77;2.63;;;;;;;2.35;83.15;101019.00;5051140;28;20459;-64
2021/04/10 02:28:59;;;;;;;14.05;3.22;;;;;;;2.36;83.33;101022.47;5051661;28;20066;-63
2021/04/10 02:31:36;;;;;;;22.90;4.47;;;;;;;2.36;83.14;101020.66;5052053;28;20098;-64
2021/04/10 02:34:11;;;;;;;21.35;3.15;;;;;;;2.35;82.60;101029.53;5051074;28;20094;-64
2021/04/10 02:36:39;;;;;;;13.55;2.60;;;;;;;2.35;82.03;101029.53;5050943;28;20242;-64
2021/04/10 02:39:06;;;;;;;17.15;2.17;;;;;;;2.29;82.71;101030.81;5050566;28;20049;-63
2021/04/10 02:41:34;;;;;;;22.20;2.88;;;;;;;2.21;83.27;101033.09;5034271;28;20033;-64
2021/04/10 02:44:08;;;;;;;19.73;3.35;;;;;;;2.21;83.78;101037.50;5050767;28;20102;-63
2021/04/10 02:46:47;;;;;;;15.40;3.08;;;;;;;2.25;83.47;101044.28;5051462;28;20667;-63
2021/04/10 02:49:16;;;;;;;14.82;2.50;;;;;;;2.21;83.03;101042.78;5033869;28;20514;-63
2021/04/10 02:51:54;;;;;;;16.63;3.95;;;;;;;2.19;83.07;101037.59;5050476;28;20029;-64
2021/04/10 02:54:24;;;;;;;22.83;4.25;;;;;;;2.18;82.81;101037.69;5051643;28;20033;-63
2021/04/10 02:56:55;;;;;;;18.15;2.83;;;;;;;2.17;83.54;101041.28;5050380;28;20033;-63
2021/04/10 02:59:22;;;;;;;12.52;2.75;;;;;;;2.13;83.37;101048.56;5051325;28;20075;-64
2021/04/10 03:01:51;;;;;;;14.95;3.58;;;;;;;2.18;83.43;101050.88;5050465;28;20446;-64
2021/04/10 03:04:17;;;;;;;16.35;2.25;;;;;;;2.20;81.97;101051.63;5050374;28;20365;-64
2021/04/10 03:06:44;;;;;;;;;;;;;;;2.16;82.24;101058.06;5051744;28;20036;-63
2021/04/10 03:09:11;;;;;;;11.85;2.03;;;;;;;2.10;82.37;101054.00;5051149;28;19920;-63
2021/04/10 03:11:36;;;;;;;25.77;4.03;;;;;;;2.05;82.38;101050.84;5051190;28;20029;-63
2021/04/10 03:14:07;;;;;;;18.02;3.08;;;;;;;2.02;82.57;101053.69;5051365;28;20044;-63
2021/04/10 03:16:35;;;;;;;20.63;3.80;;;;;;;2.01;82.99;101063.34;5033499;28;20036;-63
2021/04/10 03:19:09;;;;;;;24.20;3.85;;;;;;;2.03;83.02;101061.47;5050053;28;20365;-64
2021/04/10 03:21:40;;;;;;;14.77;3.10;;;;;;;1.95;83.17;101053.22;5050143;28;20090;-63
2021/04/10 03:24:10;;;;;;;15.18;2.78;;;;;;;1.94;83.61;101061.22;5051206;28;20029;-63
2021/04/10 03:26:36;;;;;;;20.70;3.13;;;;;;;1.91;83.79;101057.00;5051059;28;20028;-63
2021/04/10 03:29:03;;;;;;;10.20;2.88;;;;;;;1.85;83.81;101058.25;5049769;28;20029;-63
2021/04/10 03:31:33;;;;;;;18.27;3.25;;;;;;;1.81;84.04;101059.38;5050080;28;20473;-64
2021/04/10 03:34:00;;;;;;;9.43;2.45;;;;;;;1.80;84.23;101056.84;5050133;28;20033;-63
2021/04/10 03:36:26;;;;;;;12.48;3.78;;;;;;;1.71;84.58;101055.66;5050938;28;20067;-63
2021/04/10 03:38:51;;;;;;;;;;;;;;;1.64;84.42;101057.00;5033698;28;20045;-63
2021/04/10 03:41:18;;;;;;;15.10;2.50;;;;;;;1.58;84.63;101055.59;5050005;28;20243;-63
2021/04/10 03:43:43;;;;;;;;;;;;;;;1.53;83.92;101051.56;5050391;28;20040;-63
2021/04/10 03:46:09;;;;;;;25.15;4.13;;;;;;;1.51;83.71;101062.19;5051053;28;20258;-63
2021/04/10 03:48:35;;;;;;;15.38;3.33;;;;;;;1.52;83.19;101050.69;5049632;28;20040;-63
2021/04/10 03:51:04;;;;;;;15.60;3.22;;;;;;;1.54;83.06;101053.25;5051010;28;20068;-63
2021/04/10 03:53:39;;;;;;;14.82;2.58;;;;;;;1.61;82.00;101067.69;5049888;28;20068;-64
2021/04/10 03:56:10;;;;;;;16.67;3.40;;;;;;;1.58;81.31;101067.91;5033547;28;20039;-63
2021/04/10 03:58:36;;;;;;;17.13;3.08;;;;;;;1.60;80.69;101064.22;5052677;28;20075;-63
2021/04/10 04:01:02;;;;;;;;;;;;;;;1.61;80.12;101071.16;5054229;28;20032;-63
2021/04/10 04:03:28;;;;;;;;;;;;;;;1.57;80.70;101068.81;5055224;28;20337;-63
2021/04/10 04:05:53;;;;;;;18.27;4.07;;;;;;;1.51;81.51;101070.06;5053691;28;19919;-63
2021/04/10 04:08:19;;;;;;;18.33;3.20;;;;;;;1.44;82.13;101071.41;5054390;28;20509;-63
2021/04/10 04:10:44;;;;;;;15.77;4.10;;;;;;;1.35;81.75;101080.69;5054532;28;20037;-63
2021/04/10 04:13:09;;;;;;;8.53;2.67;;;;;;;1.34;81.91;101083.44;5054550;28;20037;-63
2021/04/10 04:15:35;;;;;;;13.43;2.20;;;;;;;1.27;81.95;101082.97;5037014;28;20037;-63
2021/04/10 04:18:00;;;;;;;13.30;2.90;;;;;;;1.23;81.85;101082.28;5053305;28;20344;-63
2021/04/10 04:20:25;;;;;;;13.37;3.00;;;;;;;1.26;82.20;101082.13;5054481;28;20488;-63
2021/04/10 04:22:52;;;;;;;14.83;3.23;;;;;;;1.18;81.95;101087.00;5054444;28;20070;-63
2021/04/10 04:25:17;;;;;;;;;;;;;;;1.23;82.59;101082.28;5037255;28;20091;-63
2021/04/10 04:27:42;;;;;;;15.38;3.38;;;;;;;1.23;82.63;101079.66;5054052;28;20293;-64
2021/04/10 04:30:09;;;;;;;15.93;2.60;;;;;;;1.27;82.76;101085.59;5036736;28;20029;-63
2021/04/10 04:32:35;;;;;;;17.73;3.03;;;;;;;1.30;82.89;101087.19;5053055;28;20051;-63
2021/04/10 04:35:00;;;;;;;12.17;2.40;;;;;;;1.30;82.68;101095.09;5053091;28;20029;-63
2021/04/10 04:37:26;;;;;;;14.47;2.17;;;;;;;1.33;82.49;101100.16;5054112;28;20339;-63
2021/04/10 04:39:51;;;;;;;16.10;2.25;;;;;;;1.31;82.48;101097.63;5053843;28;20480;-63
2021/04/10 04:42:17;;;;;;;14.23;2.80;;;;;;;1.35;82.85;101100.91;5054041;28;20044;-63
2021/04/10 04:44:44;;;;;;;11.05;2.03;;;;;;;1.33;82.62;101100.16;5053140;28;20040;-63
2021/04/10 04:47:09;;;;;;;16.52;2.97;;;;;;;1.33;82.85;101106.25;5053935;28;20051;-63
2021/04/10 04:49:34;;;;;;;17.03;3.00;;;;;;;1.32;83.16;101101.09;5053639;28;20032;-63
2021/04/10 04:52:00;;;;;;;24.00;2.90;;;;;;;1.29;83.09;101111.78;5053022;28;20047;-64
2021/04/10 04:54:25;;;;;;;10.90;2.28;;;;;;;1.22;83.27;101116.59;5053766;28;20051;-63
2021/04/10 04:56:51;;;;;;;14.37;3.33;;;;;;;1.23;83.85;101119.13;5052762;28;20041;-63
2021/04/10 04:59:16;;;;;;;10.17;2.03;;;;;;;1.23;83.89;101121.75;5052619;28;20047;-63
2021/04/10 05:01:42;;;;;;;9.93;2.38;;;;;;;1.18;83.73;101128.25;5053780;28;20032;-64
2021/04/10 05:04:08;;;;;;;9.73;2.30;;;;;;;1.20;83.54;101126.38;5052775;28;20529;-63
2021/04/10 05:06:33;;;;;;;8.93;2.20;;;;;;;1.20;83.85;101129.00;5053731;28;20283;-64
2021/04/10 05:08:59;;;;;;;18.90;3.90;;;;;;;1.23;83.60;101132.28;5052095;28;20043;-64
2021/04/10 05:11:24;;;;;;;11.23;2.97;;;;;;;1.32;83.33;101143.19;5035827;28;20067;-64
2021/04/10 05:13:52;;;;;;;26.13;2.23;;;;;;;1.40;83.42;101131.25;5053635;28;20867;-63
2021/04/10 05:16:18;;;;;;;18.20;2.33;;;;;;;1.50;83.13;101126.28;5052406;28;20055;-63
2021/04/10 05:18:43;;;;;;;19.20;4.23;;;;;;;1.52;82.94;101140.16;5052069;28;20041;-63
2021/04/10 05:21:08;;;;;;;16.97;3.03;;;;;;;1.57;82.97;101134.63;5052357;28;20047;-63
2021/04/10 05:23:34;;;;;;;22.70;3.80;;;;;;;1.60;82.75;101145.81;5053358;28;20071;-63
2021/04/10 05:25:59;;;;;;;16.85;3.17;;;;;;;1.61;83.17;101144.03;5053068;28;20029;-63
2021/04/10 05:28:25;;;;;;;15.80;3.53;;;;;;;1.61;82.37;101150.13;5053041;28;20049;-63
2021/04/10 05:30:50;;;;;;;8.33;2.53;;;;;;;1.63;82.86;101161.41;5052193;28;20044;-63
2021/04/10 05:33:15;;;;;;;15.43;2.13;;;;;;;1.69;82.82;101158.41;5053016;28;20032;-63
2021/04/10 05:35:41;;;;;;;15.93;2.20;;;;;;;1.76;83.07;101164.16;5052999;28;20370;-63
2021/04/10 05:38:07;;;;;;;12.00;3.38;;;;;;;1.84;82.58;101166.28;5035231;28;20036;-64
2021/04/10 05:40:32;;;;;;;16.27;3.93;;;;;;;1.91;82.13;101178.13;5052834;28;20033;-64
2021/04/10 05:42:58;;;;;;;11.43;2.90;;;;;;;1.92;81.76;101179.84;5052926;28;20329;-64
2021/04/10 05:45:23;;;;;;;13.97;2.57;;;;;;;2.02;81.55;101183.56;5035422;28;20044;-64
2021/04/10 05:47:49;;;;;;;13.43;2.15;;;;;;;1.99;80.53;101181.13;5051627;28;20852;-64
2021/04/10 05:50:14;;;;;;;13.32;2.58;;;;;;;2.21;81.32;101190.31;5052705;28;20041;-64
2021/04/10 05:52:40;;;;;;;14.32;2.80;;;;;;;2.31;80.53;101197.50;5052756;28;20442;-64
2021/04/10 05:55:07;;;;;;;11.57;2.83;;;;;;;2.42;79.92;101199.47;5050508;28;20029;-64
2021/04/10 05:57:33;;;;;;;11.63;2.65;;;;;;;2.56;79.50;101203.00;5052063;28;20036;-64
2021/04/10 05:59:58;;;;;;;12.03;3.60;;;;;;;2.74;79.59;101209.72;5052640;28;20047;-64
2021/04/10 06:02:24;;;;;;;14.30;2.23;;;;;;;2.77;78.87;101209.53;5052612;28;20033;-64
2021/04/10 06:04:51;;;;;;;19.07;3.30;;;;;;;2.84;78.90;101215.25;5052382;28;20624;-64
2021/04/10 06:07:16;;;;;;;17.20;3.38;;;;;;;2.94;79.23;101217.16;5052361;28;20188;-64
2021/04/10 06:09:42;;;;;;;17.50;2.87;;;;;;;2.97;78.96;101221.38;5051158;28;20119;-64
2021/04/10 06:12:07;;;;;;;13.77;2.30;;;;;;;3.02;76.84;101221.06;5051138;28;20470;-64
2021/04/10 06:14:32;;;;;;;14.30;3.25;;;;;;;3.14;76.30;101223.75;5052058;28;20135;-64
2021/04/10 06:16:58;;;;;;;14.73;3.93;;;;;;;3.30;75.45;101222.69;5052211;28;20058;-64
2021/04/10 06:19:23;;;;;;;12.13;2.97;;;;;;;3.36;72.98;101238.97;5050912;28;20036;-64
2021/04/10 06:21:49;;;;;;;16.87;1.83;;;;;;;3.44;71.83;101232.31;5034402;28;20756;-64
2021/04/10 06:24:15;;;;;;;9.70;2.53;;;;;;;3.52;71.69;101238.78;5052268;28;20062;-78
2021/04/10 06:26:45;;;;;;;11.75;4.15;;;;;;;3.60;71.21;101240.88;5051302;28;20339;-79
2021/04/10 06:29:12;;;;;;;17.58;3.22;;;;;;;3.53;70.81;101240.47;5051004;28;20044;-79
2021/04/10 06:31:39;;;;;;;12.88;2.85;;;;;;;3.59;69.66;101250.59;5051132;28;20370;-79
2021/04/10 06:34:05;;;;;;;10.80;1.95;;;;;;;3.80;68.86;101263.28;5051266;28;20115;-79
2021/04/10 06:36:31;;;;;;;14.68;2.25;;;;;;;3.83;67.94;101251.66;5050867;28;20522;-78
2021/04/10 06:38:56;;;;;;;11.35;1.90;;;;;;;3.90;67.27;101258.22;5051713;28;20036;-78
2021/04/10 06:41:22;;;;;;;14.00;2.40;;;;;;;3.99;65.30;101263.69;5034483;28;20040;-78
2021/04/10 06:43:48;;;;;;;7.15;1.77;;;;;;;4.16;66.11;101259.03;5051058;28;20150;-79
2021/04/10 06:46:13;;;;;;;9.13;2.00;;;;;;;4.38;64.35;101266.28;5051992;28;20044;-78
2021/04/10 06:48:40;;;;;;;4.88;1.65;;;;;;;4.38;63.72;101263.66;5050756;28;20037;-78
2021/04/10 06:51:07;;;;;;;11.45;2.25;;;;;;;4.36;64.36;101263.75;5051820;28;20043;-77
2021/04/10 06:53:44;;;;;;;11.45;2.40;;;;;;;4.54;63.63;101266.88;5034109;28;20032;-78
2021/04/10 06:56:11;;;;;;;11.30;2.28;;;;;;;4.39;62.24;101275.91;5051603;28;20078;-79
2021/04/10 06:59:15;;;;;;;11.95;2.45;;;;;;;4.49;63.35;101276.91;5051525;28;20438;-79
2021/04/10 07:01:41;;;;;;;9.07;2.40;;;;;;;4.52;61.29;101278.50;5051275;28;20052;-79
2021/04/10 07:04:08;;;;;;;14.10;2.70;;;;;;;4.72;63.17;101287.66;5051535;28;20048;-79
2021/04/10 07:06:34;;;;;;;15.50;3.65;;;;;;;4.90;60.99;101290.75;5049640;28;20442;-79
2021/04/10 07:08:59;;;;;;;11.75;2.28;;;;;;;5.24;60.29;101289.09;5048440;28;20055;-78
2021/04/10 07:11:24;;;;;;;6.90;1.73;;;;;;;5.34;58.91;101297.19;5050344;28;20047;-78
2021/04/10 07:13:50;;;;;;;10.57;1.93;;;;;;;5.32;58.08;101285.91;5051367;28;20676;-79
2021/04/10 07:16:15;;;;;;;8.00;1.83;;;;;;;5.45;58.81;101290.13;5050173;28;20033;-79
2021/04/10 07:18:40;;;;;;;11.00;2.13;;;;;;;5.42;58.02;101298.31;5050215;28;20029;-79
2021/04/10 07:21:24;;;;;;;9.03;2.40;;;;;;;5.74;57.64;101296.84;5049978;28;20025;-79
2021/04/10 07:23:49;;;;;;;11.45;2.72;;;;;;;6.02;58.05;101296.41;5049851;28;20116;-78
2021/04/10 07:26:17;;;;;;;9.50;1.73;;;;;;;5.98;56.61;101291.47;5050646;28;20100;-78
2021/04/10 07:28:43;;;;;;;8.63;2.45;;;;;;;6.16;55.46;101303.31;5050828;28;20091;-78
2021/04/10 07:31:15;;;;;;;9.55;2.13;;;;;;;6.03;54.29;101299.91;5050862;28;20079;-78
2021/04/10 07:33:42;;;;;;;12.50;3.47;;;;;;;6.18;55.64;101304.03;5049815;28;20044;-78
2021/04/10 07:36:11;;;;;;;12.05;2.63;;;;;;;5.54;58.21;101299.19;5050198;28;20041;-78
2021/04/10 07:38:40;;;;;;;10.57;2.08;;;;;;;5.97;55.90;101306.53;5050849;28;20079;-77
2021/04/10 07:41:26;;;;;;;7.85;2.10;;;;;;;5.48;52.70;101304.97;5049321;28;20045;-79
2021/04/10 07:43:52;;;;;;;10.70;1.98;;;;;;;5.26;52.36;101301.25;5050677;28;20098;-77
2021/04/10 07:46:23;;;;;;;9.35;1.70;;;;;;;5.49;54.76;101310.13;5049892;28;20049;-78
2021/04/10 07:49:04;;;;;;;8.63;1.67;;;;;;;6.31;53.75;101311.84;5049751;28;20049;-79
2021/04/10 07:51:31;;;;;;;12.95;2.17;;;;;;;6.34;52.96;101317.78;5050990;28;20735;-78
2021/04/10 07:53:58;;;;;;;10.95;2.45;;;;;;;7.18;51.47;101320.72;5050428;28;20098;-79
2021/04/10 07:56:23;;;;;;;16.42;2.50;;;;;;;7.18;52.18;101314.56;5050595;28;20454;-78
2021/04/10 07:58:48;;;;;;;7.83;1.40;;;;;;;6.89;50.06;101317.78;5049470;28;20041;-78
2021/04/10 08:01:16;;;;;;;7.80;1.40;;;;;;;6.51;50.94;101320.91;5049892;28;20041;-79
2021/04/10 08:03:49;;;;;;;8.18;1.90;;;;;;;6.85;49.55;101320.81;5050916;28;20098;-78
2021/04/10 08:06:17;;;;;;;12.30;1.65;;;;;;;7.11;47.00;101330.16;5050740;28;20546;-78
2021/04/10 08:08:42;;;;;;;6.78;1.65;;;;;;;7.16;48.44;101325.34;5049838;28;20044;-79
2021/04/10 08:11:08;;;;;;;7.20;1.87;;;;;;;7.19;48.33;101338.34;5050801;28;20450;-79
2021/04/10 08:13:33;;;;;;;7.57;1.47;;;;;;;6.62;48.77;101335.94;5050766;28;20037;-78
2021/04/10 08:16:11;;;;;;;13.30;1.40;;;;;;;7.15;51.22;101344.88;5050812;28;20033;-78
2021/04/10 08:18:42;;;;;;;10.30;1.50;;;;;;;7.63;48.69;101332.13;5049446;28;20037;-78
2021/04/10 08:21:08;;;;;;;8.52;1.60;;;;;;;7.95;46.38;101345.34;5050669;28;20051;-78
2021/04/10 08:23:33;;;;;;;3.73;1.33;;;;;;;8.23;47.27;101342.00;5050499;28;20800;-78
2021/04/10 08:25:58;;;;;;;8.83;1.90;;;;;;;8.43;46.80;101348.28;5050625;28;20028;-78
2021/04/10 08:28:24;;;;;;;8.10;1.57;;;;;;;8.50;42.52;101348.59;5049484;28;20068;-78
2021/04/10 08:30:49;;;;;;;7.47;1.73;;;;;;;7.93;44.29;101345.47;5049552;28;20446;-78
2021/04/10 08:33:14;;;;;;;8.63;1.63;;;;;;;8.61;44.74;101348.47;5050617;28;20047;-78
2021/04/10 08:35:40;;;;;;;5.90;1.27;;;;;;;9.14;43.57;101346.50;5050286;28;20082;-78
2021/04/10 08:38:05;;;;;;;3.70;1.20;;;;;;;9.84;41.42;101344.53;5050427;28;20481;-77
2021/04/10 08:40:34;;;;;;;7.97;1.35;;;;;;;9.61;41.44;101350.16;5049565;28;20037;-65
2021/04/10 08:43:00;;;;;;;12.95;2.15;;;;;;;10.03;40.01;101344.47;5049696;28;20075;-65
2021/04/10 08:45:30;;;;;;;7.90;1.60;;;;;;;10.21;40.26;101349.91;5053089;28;20064;-65
2021/04/10 08:48:00;;;;;;;9.90;1.73;;;;;;;10.80;40.58;101353.19;5035917;28;20035;-65
2021/04/10 08:50:25;;;;;;;9.70;1.85;;;;;;;10.65;39.67;101344.84;5052963;28;20620;-64
2021/04/10 08:52:51;;;;;;;3.67;0.90;;;;;;;10.54;38.68;101359.22;5052894;28;20037;-64
2021/04/10 08:55:17;;;;;;;6.10;1.95;;;;;;;10.18;39.57;101352.84;5053727;28;20528;-64
2021/04/10 08:57:43;;;;;;;4.60;1.70;;;;;;;10.98;39.59;101361.25;5035662;28;20036;-65
2021/04/10 09:00:21;;;;;;;8.07;1.50;;;;;;;11.74;36.10;101359.97;5053811;28;20287;-65
2021/04/10 09:02:52;;;;;;;4.30;1.30;;;;;;;11.26;37.46;101359.38;5052737;28;20040;-65
2021/04/10 09:05:18;;;;;;;9.52;1.80;;;;;;;11.60;36.77;101359.50;5052874;28;20047;-65
2021/04/10 09:07:43;;;;;;;4.72;1.02;;;;;;;10.43;40.33;101364.75;5052402;28;20037;-65
2021/04/10 09:10:09;;;;;;;9.90;1.70;;;;;;;10.18;37.10;101366.19;5053783;28;20032;-65
2021/04/10 09:12:35;;;;;;;5.97;1.65;;;;;;;10.35;38.22;101367.31;5053493;28;20166;-64
2021/04/10 09:15:09;;;;;;;5.70;0.97;;;;;;;11.25;37.17;101363.03;5052299;28;20041;-64
2021/04/10 09:17:55;;;;;;;4.95;1.30;;;;;;;10.58;35.43;101359.75;5051976;28;20450;-65
2021/04/10 09:20:43;;;;;;;3.15;0.90;;;;;;;10.62;36.81;101363.00;5053517;28;20112;-65
2021/04/10 09:23:09;;;;;;;5.43;1.13;;;;;;;11.02;36.33;101373.31;5053337;28;20048;-65
2021/04/10 09:25:35;;;;;;;5.55;1.27;;;;;;;10.75;36.91;101368.84;5035705;28;20040;-65
2021/04/10 09:28:05;;;;;;;11.07;2.00;;;;;;;11.10;37.16;101372.59;5051799;28;20381;-65
2021/04/10 09:30:40;;;;;;;8.82;1.33;;;;;;;11.74;35.19;101379.53;5053207;28;20037;-64
2021/04/10 09:33:30;;;;;;;7.43;2.08;;;;;;;11.92;35.24;101390.25;5052988;28;20025;-65
2021/04/10 09:35:57;;;;;;;6.00;1.23;;;;;;;11.88;34.32;101386.19;5052949;28;20048;-65
2021/04/10 09:38:38;;;;;;;5.68;1.40;;;;;;;11.98;32.85;101391.44;5051538;28;20033;-65
2021/04/10 09:41:03;;;;;;;4.25;1.45;;;;;;;10.52;37.27;101392.41;5052864;28;20041;-65
2021/04/10 09:43:29;;;;;;;4.10;1.27;;;;;;;11.27;36.22;101398.47;5035202;28;20055;-65
2021/04/10 09:45:54;;;;;;;6.57;1.52;;;;;;;11.54;35.45;101392.22;5052903;28;20086;-64
2021/04/10 09:48:22;;;;;;;7.07;1.77;;;;;;;11.08;35.81;101398.59;5052434;28;20033;-65
2021/04/10 09:50:51;;;;;;;4.45;1.48;;;;;;;10.60;36.13;101405.00;5051631;28;20454;-65
2021/04/10 09:53:24;;;;;;;7.18;1.13;;;;;;;11.29;35.41;101403.69;5051888;28;20033;-65
2021/04/10 09:56:05;;;;;;;4.97;1.08;;;;;;;11.11;34.21;101399.13;5050568;28;20033;-65
2021/04/10 09:58:52;;;;;;;3.80;0.93;;;;;;;10.98;37.09;101396.84;5051527;28;20044;-64
2021/04/10 10:01:20;;;;;;;7.50;1.17;;;;;;;10.84;36.56;101396.47;5051640;28;20033;-64
2021/04/10 10:03:47;;;;;;;6.13;1.00;;;;;;;10.60;35.09;101405.00;5052568;28;20033;-64
2021/04/10 10:06:17;;;;;;;5.30;1.27;;;;;;;10.40;36.33;101409.59;5051559;28;20033;-64
2021/04/10 10:08:44;;;;;;;7.72;2.03;;;;;;;11.15;37.16;101405.88;5051255;28;20415;-64
2021/04/10 10:11:09;;;;;;;5.80;1.38;;;;;;;12.10;34.53;101403.56;5052220;28;20037;-64
2021/04/10 10:13:36;;;;;;;2.97;1.03;;;;;;;12.15;34.21;101409.31;5051551;28;20059;-64
2021/04/10 10:16:02;;;;;;;3.90;1.40;;;;;;;10.93;34.00;101409.81;5052547;28;20105;-65
2021/04/10 10:18:34;;;;;;;4.40;1.20;;;;;;;11.71;34.06;101403.09;5052039;28;20124;-65
2021/04/10 10:21:13;;;;;;;5.95;1.30;;;;;;;11.25;35.73;101404.97;5052261;28;20072;-65
2021/04/10 10:23:40;;;;;;;5.40;1.35;;;;;;;11.89;32.51;101408.44;5050683;28;20029;-65
2021/04/10 10:26:19;;;;;;;6.63;1.38;;;;;;;12.42;32.08;101404.78;5050376;28;20035;-65
2021/04/10 10:28:59;;;;;;;4.82;1.17;;;;;;;12.03;34.33;101410.53;5049313;28;20068;-65
2021/04/10 10:31:27;;;;;;;5.43;1.02;;;;;;;12.21;31.23;101397.13;5050382;28;20102;-65
2021/04/10 10:33:53;;;;;;;6.13;1.10;;;;;;;11.26;33.85;101407.50;5032830;28;20044;-65
2021/04/10 10:36:21;;;;;;;3.00;1.17;;;;;;;11.71;33.13;101401.25;5049560;28;20040;-65
2021/04/10 10:38:48;;;;;;;6.00;1.00;;;;;;;11.61;35.57;101401.31;5050238;28;20063;-65
2021/04/10 10:41:16;;;;;;;5.15;1.05;;;;;;;12.18;32.86;101398.28;5051822;28;20037;-65
2021/04/10 10:43:45;;;;;;;8.43;1.13;;;;;;;11.44;34.27;101398.63;5051823;28;20039;-65
2021/04/10 10:46:16;;;;;;;7.22;1.15;;;;;;;9.83;36.34;101406.84;5050670;28;20028;-64
2021/04/10 10:48:42;;;;;;;2.78;0.82;;;;;;;10.79;34.55;101399.59;5051194;28;20037;-64
2021/04/10 10:51:13;;;;;;;3.90;1.47;;;;;;;12.25;33.46;101393.16;5050782;28;20102;-65
2021/04/10 10:53:46;;;;;;;6.80;1.50;;;;;;;12.86;30.53;101386.75;5034123;28;20470;-65
2021/04/10 10:56:28;;;;;;;6.30;1.10;;;;;;;12.53;32.31;101399.16;5051386;28;20409;-65
2021/04/10 10:59:06;;;;;;;4.90;1.10;;;;;;;12.59;33.35;101390.47;5051331;28;20083;-65
2021/04/10 11:01:40;;;;;;;6.53;1.52;;;;;;;12.90;30.73;101392.66;5050575;28;20087;-65
2021/04/10 11:04:11;;;;;;;7.03;1.75;;;;;;;13.64;29.80;101392.81;5050554;28;20041;-65
2021/04/10 11:06:39;;;;;;;7.25;1.83;;;;;;;12.73;31.21;101396.25;5051217;28;20048;-65
2021/04/10 11:09:07;;;;;;;4.60;1.35;;;;;;;12.39;32.06;101400.59;5033620;28;20044;-65
2021/04/10 11:11:45;;;;;;;5.55;1.30;;;;;;;12.87;30.68;101399.13;5051206;28;20122;-65
2021/04/10 11:14:18;;;;;;;6.30;1.88;;;;;;;13.00;28.85;101398.69;5051464;28;20032;-65
2021/04/10 11:16:46;;;;;;;6.07;1.30;;;;;;;12.69;31.70;101395.72;5032812;28;20044;-65
2021/04/10 11:19:24;;;;;;;9.20;1.45;;;;;;;12.07;31.38;101398.53;5049377;28;20029;-65
2021/04/10 11:21:51;;;;;;;4.13;1.15;;;;;;;10.76;33.54;101400.72;5049583;28;20040;-65
2021/04/10 11:24:16;;;;;;;4.15;1.15;;;;;;;12.55;31.37;101394.50;5031948;28;20036;-65
2021/04/10 11:26:52;;;;;;;3.70;0.90;;;;;;;13.21;30.09;101394.75;5049447;28;20434;-65
2021/04/10 11:29:29;;;;;;;3.40;1.33;;;;;;;14.04;27.06;101393.81;5049512;28;20055;-65
2021/04/10 11:32:11;;;;;;;4.28;1.00;;;;;;;12.57;29.55;101395.19;5050500;28;20055;-65
2021/04/10 11:34:36;;;;;;;5.38;0.90;;;;;;;13.59;32.31;101400.53;5050152;28;20127;-65